»·PEaware :: DAL1948 KSLC-KBOI

DAL1948 :: KSLC-KBOI

FLIGHT INFORMATION

Flight Status: Arrived
Operator:
Delta Air Lines
More flights by this operator :: More flights under this callsign
Pilot: Joe P. (13940)
Aircraft: MCDONNELL-DOUGLAS MD-82
(MD82)
More flights by this aircraft type
Origin: KSLC Salt Lake City Intl
United States
Destination: KBOI Boise Air Terminal/Gowen
United States
More flights between these airports :: More routes between these airports
Route: TWF4 TWF BOI DCT
File this flight plan on PilotEdge
Remarks: SEL / ABCD KTWF -PBN / A1B1L1 NAV / RNVD5E10A5 DOF / 180325 REG / N904DL RVR / 300 PER / C
Altitude:
(Current/Filed)
280ft
Speed:
(Current/Filed)
438kts
Departed: 25-Mar-18 06:10 AM
Arrived: 25-Mar-18 07:08 AM
Distance/Time
Traveled:
252nm/0:57
Distance/Time
To Go:
Arrived

Flight Plot

Page will automatically refresh every two minutes.

Flight plan parsing failed; only flown route is shown


Map Options




Map Legend


Flown Route
Filed Route
Departure Airport
Arrival Airport
Navaid (VOR, NDB)
Fix

Horizontal Profiles

Position Reports

Time Latitude Longitude Heading Altitude Ground
Speed
25-Mar-18 05:21 40.785578 -111.978061 231 4236ft 0kts
25-Mar-18 05:22 40.785578 -111.978061 231 4236ft 0kts
25-Mar-18 05:23 40.785578 -111.978061 231 4236ft 0kts
25-Mar-18 05:24 40.785578 -111.978061 231 4236ft 0kts
25-Mar-18 05:25 40.785578 -111.978061 231 4236ft 0kts
25-Mar-18 05:26 40.785578 -111.978061 231 4236ft 0kts
25-Mar-18 05:27 40.785578 -111.978061 231 4236ft 0kts
25-Mar-18 05:28 40.785578 -111.978061 231 4236ft 0kts
25-Mar-18 05:29 40.785578 -111.978061 231 4236ft 0kts
25-Mar-18 05:30 40.785578 -111.978061 231 4236ft 0kts
25-Mar-18 05:31 40.785578 -111.978061 231 4236ft 0kts
25-Mar-18 05:32 40.785578 -111.978061 231 4236ft 0kts
25-Mar-18 05:33 40.785578 -111.978061 231 4236ft 0kts
25-Mar-18 05:34 40.785578 -111.978061 231 4236ft 0kts
25-Mar-18 05:35 40.785578 -111.978061 231 4236ft 0kts
25-Mar-18 05:36 40.785578 -111.978061 231 4236ft 0kts
25-Mar-18 05:37 40.785578 -111.978061 231 4236ft 0kts
25-Mar-18 05:38 40.785578 -111.978061 231 4236ft 0kts
25-Mar-18 05:39 40.785578 -111.978061 231 4236ft 0kts
25-Mar-18 05:40 40.785578 -111.978061 231 4236ft 0kts
25-Mar-18 05:41 40.785578 -111.978061 231 4236ft 0kts
25-Mar-18 05:42 40.785578 -111.978061 231 4236ft 0kts
25-Mar-18 05:43 40.785578 -111.978061 231 4236ft 0kts
25-Mar-18 05:44 40.785578 -111.978061 231 4236ft 0kts
25-Mar-18 05:45 40.785578 -111.978061 231 4236ft 0kts
25-Mar-18 05:46 40.785578 -111.978061 231 4236ft 0kts
25-Mar-18 05:47 40.785578 -111.978061 231 4236ft 0kts
25-Mar-18 05:48 40.785578 -111.978061 231 4236ft 0kts
25-Mar-18 05:49 40.785705 -111.977862 223 4236ft 2kts
25-Mar-18 05:50 40.786434 -111.977460 179 4236ft 2kts
25-Mar-18 05:51 40.787206 -111.977795 144 4236ft 2kts
25-Mar-18 05:52 40.787374 -111.977965 141 4236ft 0kts
25-Mar-18 05:53 40.787374 -111.977965 141 4236ft 0kts
25-Mar-18 05:54 40.787374 -111.977965 141 4236ft 0kts
25-Mar-18 05:55 40.787374 -111.977965 141 4236ft 0kts
25-Mar-18 05:56 40.787374 -111.977965 141 4236ft 0kts
25-Mar-18 05:57 40.787374 -111.977965 141 4236ft 0kts
25-Mar-18 05:58 40.787374 -111.977964 141 4236ft 0kts
25-Mar-18 05:59 40.787373 -111.977964 141 4236ft 0kts
25-Mar-18 06:00 40.787373 -111.977964 141 4236ft 0kts
25-Mar-18 06:01 40.787373 -111.977964 141 4236ft 0kts
25-Mar-18 06:02 40.787373 -111.977964 141 4236ft 0kts
25-Mar-18 06:03 40.787373 -111.977964 141 4236ft 0kts
25-Mar-18 06:04 40.784917 -111.976640 169 4236ft 8kts
25-Mar-18 06:05 40.782728 -111.976319 175 4236ft 14kts
25-Mar-18 06:06 40.777242 -111.975209 175 4236ft 22kts
25-Mar-18 06:07 40.774716 -111.973387 54 4236ft 7kts
25-Mar-18 06:08 40.775297 -111.973122 357 4236ft 0kts
25-Mar-18 06:09 40.778653 -111.973557 354 4236ft 50kts
25-Mar-18 06:10 40.813140 -111.977244 356 4694ft 181kts
25-Mar-18 06:11 40.852570 -112.027450 287 6461ft 246kts
25-Mar-18 06:12 40.872281 -112.117101 283 9369ft 261kts
25-Mar-18 06:13 40.894549 -112.211686 287 10179ft 281kts
25-Mar-18 06:14 40.949337 -112.287027 314 13202ft 291kts
25-Mar-18 06:15 41.014024 -112.357997 311 15313ft 325kts
25-Mar-18 06:16 41.087170 -112.441477 316 17412ft 359kts
25-Mar-18 06:17 41.173350 -112.515087 319 19814ft 374kts
25-Mar-18 06:18 41.257136 -112.597463 313 21962ft 378kts
25-Mar-18 06:19 41.331956 -112.694400 301 23864ft 374kts
25-Mar-18 06:20 41.401569 -112.799332 302 25440ft 384kts
25-Mar-18 06:21 41.472478 -112.906692 300 26880ft 389kts
25-Mar-18 06:22 41.544487 -113.016801 300 27895ft 400kts
25-Mar-18 06:23 41.616931 -113.128280 300 27925ft 401kts
25-Mar-18 06:24 41.692448 -113.244200 300 27926ft 412kts
25-Mar-18 06:25 41.767850 -113.361074 300 27930ft 414kts
25-Mar-18 06:26 41.843157 -113.478289 300 27933ft 416kts
25-Mar-18 06:27 41.918673 -113.596150 300 27936ft 415kts
25-Mar-18 06:28 41.993662 -113.713784 300 27938ft 415kts
25-Mar-18 06:29 42.068526 -113.831566 300 27946ft 415kts
25-Mar-18 06:30 42.143609 -113.949985 300 27949ft 415kts
25-Mar-18 06:31 42.218498 -114.068096 300 27952ft 415kts
25-Mar-18 06:32 42.293352 -114.186466 300 27952ft 415kts
25-Mar-18 06:33 42.368434 -114.305542 300 27956ft 415kts
25-Mar-18 06:34 42.443125 -114.424674 300 27958ft 415kts
25-Mar-18 06:35 42.519108 -114.543586 301 27936ft 423kts
25-Mar-18 06:36 42.599179 -114.660859 304 26224ft 420kts
25-Mar-18 06:37 42.677954 -114.775164 304 24411ft 410kts
25-Mar-18 06:38 42.755016 -114.888366 304 22605ft 403kts
25-Mar-18 06:39 42.830108 -114.999139 305 20843ft 394kts
25-Mar-18 06:40 42.903899 -115.107471 306 19144ft 386kts
25-Mar-18 06:41 42.975991 -115.214432 307 17440ft 378kts
25-Mar-18 06:42 43.046157 -115.318760 309 15814ft 369kts
25-Mar-18 06:43 43.114817 -115.420968 309 14214ft 362kts
25-Mar-18 06:44 43.182195 -115.521744 310 12609ft 354kts
25-Mar-18 06:45 43.247851 -115.620309 311 11088ft 349kts
25-Mar-18 06:46 43.307996 -115.710806 311 10221ft 279kts
25-Mar-18 06:47 43.358229 -115.786032 312 9108ft 268kts
25-Mar-18 06:48 43.406847 -115.858548 312 7732ft 250kts
25-Mar-18 06:49 43.450346 -115.923637 312 6344ft 204kts
25-Mar-18 06:50 43.483449 -115.980618 294 5052ft 177kts
25-Mar-18 06:51 43.502341 -116.037149 295 4058ft 153kts
25-Mar-18 06:52 43.519379 -116.087606 295 3696ft 145kts
25-Mar-18 06:53 43.536231 -116.136772 295 3331ft 144kts
25-Mar-18 06:54 43.552967 -116.185537 297 3336ft 140kts
25-Mar-18 06:55 43.574189 -116.236694 305 4657ft 137kts
25-Mar-18 06:56 43.602564 -116.292424 310 5300ft 187kts
25-Mar-18 06:57 43.642719 -116.339829 334 5611ft 192kts
25-Mar-18 06:58 43.692474 -116.366922 338 5613ft 193kts
25-Mar-18 06:59 43.739039 -116.392192 329 5603ft 174kts
25-Mar-18 07:00 43.738307 -116.445570 209 5624ft 170kts
25-Mar-18 07:01 43.691659 -116.443600 169 5024ft 169kts
25-Mar-18 07:02 43.645051 -116.431498 169 5014ft 171kts
25-Mar-18 07:03 43.618952 -116.386675 104 5032ft 158kts
25-Mar-18 07:04 43.600293 -116.330995 116 4204ft 160kts
25-Mar-18 07:05 43.581362 -116.275716 114 3398ft 157kts
25-Mar-18 07:06 43.564134 -116.225373 114 2843ft 64kts
25-Mar-18 07:07 43.561476 -116.216842 53 2843ft 13kts
25-Mar-18 07:08 43.565168 -116.216547 334 2843ft 0kts
25-Mar-18 07:09 43.565372 -116.216826 305 2843ft 10kts
25-Mar-18 07:10 43.566064 -116.220831 283 2843ft 10kts
25-Mar-18 07:11 43.567690 -116.225778 296 2843ft 17kts
25-Mar-18 07:12 43.570125 -116.233043 294 2843ft 23kts
25-Mar-18 07:13 43.570395 -116.240608 239 2843ft 16kts
25-Mar-18 07:14 43.567321 -116.242445 255 2843ft 5kts
25-Mar-18 07:15 43.567388 -116.243644 275 2843ft 0kts
25-Mar-18 07:16 43.567388 -116.243644 275 2843ft 0kts
25-Mar-18 07:17 43.567388 -116.243644 275 2843ft 0kts
25-Mar-18 07:18 43.567388 -116.243644 275 2843ft 0kts
25-Mar-18 07:19 43.567388 -116.243644 275 2843ft 0kts
25-Mar-18 07:20 43.567388 -116.243644 275 2843ft 0kts
25-Mar-18 07:21 43.567388 -116.243644 275 2843ft 0kts

Navigation Log

Ident Type
Flight plan parsing failed, navigation log unavailable